Time;durP1;ratioP1;P1;durP2;ratioP2;P2;SDS_P1;SDS_P2;PMS_P1;PMS_P2;Temp;Humidity;BMP_temperature;BMP_pressure;BME280_temperature;BME280_humidity;BME280_pressure;Samples;Min_cycle;Max_cycle;Signal;HPM_P1;HPM_P2
2022/09/30 00:22:23;;;;;;;23.33;17.95;;;9.00;99.90;;;;;;4858845;29;20209;-89
2022/09/30 00:25:47;;;;;;;;;;;;;;;;;;;;;
2022/09/30 00:30:01;;;;;;;;;;;;;;;;;;;;;
2022/09/30 00:51:11;;;;;;;;;;;;;;;;;;;;;
2022/09/30 01:01:17;;;;;;;25.38;18.25;;;9.00;99.90;;;;;;4868909;29;20221;-89
2022/09/30 01:08:23;;;;;;;22.05;16.92;;;9.10;99.90;;;;;;4762492;30;20238;-88
2022/09/30 01:18:35;;;;;;;21.48;17.40;;;9.00;99.90;;;;;;5682940;23;20744;-87
2022/09/30 01:36:40;;;;;;;;;;;;;;;;;;;;;
2022/09/30 01:40:01;;;;;;;21.88;16.83;;;9.30;99.90;;;;;;4875413;29;20704;-88
2022/09/30 01:48:15;;;;;;;;;;;;;;;;;;;;;
2022/09/30 01:51:38;;;;;;;22.23;16.95;;;9.50;99.90;;;;;;4837508;29;20676;-86
2022/09/30 01:55:19;;;;;;;25.65;18.20;;;9.30;99.90;;;;;;4886988;29;20244;-88
2022/09/30 02:02:01;;;;;;;22.40;16.48;;;9.10;99.90;;;;;;4877862;29;20251;-85
2022/09/30 02:05:10;;;;;;;17.98;15.32;;;9.10;99.90;;;;;;4887197;29;20285;-85
2022/09/30 02:11:28;;;;;;;23.67;18.73;;;8.80;99.90;;;;;;4931506;29;20202;-86
2022/09/30 02:14:13;;;;;;;18.02;15.82;;;8.90;99.90;;;;;;4926748;29;20218;-87
2022/09/30 02:17:24;;;;;;;22.33;17.42;;;9.00;99.90;;;;;;4929740;29;20219;-90
2022/09/30 02:22:50;;;;;;;21.30;16.60;;;9.20;99.90;;;;;;5001330;23;20240;-88
2022/09/30 02:25:26;;;;;;;21.90;17.58;;;8.90;99.90;;;;;;4957529;29;20222;-85
2022/09/30 02:27:58;;;;;;;23.42;18.38;;;8.80;99.90;;;;;;4968430;28;20196;-86
2022/09/30 02:30:42;;;;;;;22.05;17.83;;;8.90;99.90;;;;;;4954267;28;20202;-87
2022/09/30 02:33:44;;;;;;;;;;;;;;;;;;;;;
2022/09/30 02:37:35;;;;;;;22.42;17.80;;;8.80;99.90;;;;;;4943455;29;20214;-87
2022/09/30 02:40:47;;;;;;;;;;;;;;;;;;;;;
2022/09/30 02:43:51;;;;;;;;;;;;;;;;;;;;;
2022/09/30 02:46:54;;;;;;;22.38;18.52;;;9.10;99.90;;;;;;4967482;28;20195;-83
2022/09/30 02:49:37;;;;;;;23.00;19.10;;;9.10;99.90;;;;;;4957326;29;20211;-85
2022/09/30 02:52:21;;;;;;;22.75;17.80;;;9.00;99.90;;;;;;4950530;29;20555;-88
2022/09/30 02:54:57;;;;;;;25.35;19.98;;;9.00;99.90;;;;;;4942186;29;20198;-86
2022/09/30 02:57:41;;;;;;;22.50;18.00;;;8.70;99.90;;;;;;4961021;29;20215;-87
2022/09/30 03:00:09;;;;;;;28.80;20.20;;;8.70;99.90;;;;;;4954948;29;20214;-87
2022/09/30 03:02:39;;;;;;;25.20;20.67;;;8.80;99.90;;;;;;4956716;29;20578;-85
2022/09/30 03:05:09;;;;;;;22.55;18.92;;;8.80;99.90;;;;;;4949686;29;20229;-84
2022/09/30 03:07:40;;;;;;;22.90;19.55;;;8.90;99.90;;;;;;4933268;29;20222;-87
2022/09/30 03:10:12;;;;;;;25.27;20.50;;;9.10;99.90;;;;;;4956550;29;20225;-88
2022/09/30 03:17:00;;;;;;;20.73;17.65;;;9.20;99.90;;;;;;4938430;29;20206;-89
2022/09/30 03:19:42;;;;;;;21.17;18.55;;;9.00;99.90;;;;;;4973663;28;20186;-84
2022/09/30 03:22:23;;;;;;;23.13;20.38;;;8.90;99.90;;;;;;4947031;29;20242;-90
2022/09/30 03:25:39;;;;;;;25.38;19.52;;;8.90;99.90;;;;;;4955896;29;20217;-87
2022/09/30 03:28:26;;;;;;;23.23;19.42;;;8.90;99.90;;;;;;4958594;29;20204;-88
2022/09/30 03:31:35;;;;;;;29.17;19.98;;;9.00;99.90;;;;;;4943774;29;20203;-88
2022/09/30 03:34:57;;;;;;;23.13;20.58;;;9.00;99.90;;;;;;4924526;29;20282;-85
2022/09/30 03:38:04;;;;;;;25.58;20.48;;;8.90;99.90;;;;;;4900273;29;20214;-90
2022/09/30 03:40:42;;;;;;;29.15;21.02;;;9.00;99.90;;;;;;4946377;29;20206;-87
2022/09/30 03:43:24;;;;;;;30.02;21.02;;;8.90;99.90;;;;;;4937503;29;21069;-89
2022/09/30 03:46:16;;;;;;;24.77;19.95;;;8.90;99.90;;;;;;4942027;29;20214;-86
2022/09/30 03:48:51;;;;;;;22.42;18.70;;;8.90;99.90;;;;;;4949021;29;20206;-86
2022/09/30 03:51:19;;;;;;;26.30;20.73;;;8.90;99.90;;;;;;4915553;29;20222;-87
2022/09/30 03:53:46;;;;;;;23.98;21.38;;;8.80;99.90;;;;;;4941298;29;20201;-88
2022/09/30 03:56:15;;;;;;;24.95;20.90;;;8.70;99.90;;;;;;4939780;29;20208;-88
2022/09/30 03:58:47;;;;;;;25.17;21.95;;;8.70;99.90;;;;;;4941437;29;20286;-85
2022/09/30 04:01:20;;;;;;;28.50;21.83;;;8.70;99.90;;;;;;4925297;29;20214;-82
2022/09/30 04:03:51;;;;;;;27.08;20.77;;;8.70;99.90;;;;;;4951578;29;20384;-84
2022/09/30 04:06:24;;;;;;;26.77;20.90;;;8.70;99.90;;;;;;4953881;29;20221;-83
2022/09/30 04:08:52;;;;;;;27.10;21.95;;;8.80;99.90;;;;;;4928098;29;20253;-84
2022/09/30 04:11:20;;;;;;;26.85;21.10;;;8.90;99.90;;;;;;4949744;29;20421;-87
2022/09/30 04:13:48;;;;;;;26.65;19.52;;;8.90;99.90;;;;;;4930026;29;20209;-87
2022/09/30 04:16:17;;;;;;;28.77;21.63;;;9.00;99.90;;;;;;4942686;29;20214;-88
2022/09/30 04:18:45;;;;;;;24.15;19.50;;;9.00;99.90;;;;;;4949917;29;20201;-89
2022/09/30 04:21:13;;;;;;;23.90;20.80;;;9.10;99.90;;;;;;4952555;29;20221;-86
2022/09/30 04:23:42;;;;;;;27.73;21.73;;;9.00;99.90;;;;;;4944715;29;20634;-89
2022/09/30 04:26:12;;;;;;;32.05;23.58;;;9.00;99.90;;;;;;4956417;29;20232;-91
2022/09/30 04:28:39;;;;;;;29.55;23.67;;;9.00;99.90;;;;;;4964553;28;20190;-90
2022/09/30 04:31:09;;;;;;;31.58;23.90;;;9.20;99.90;;;;;;4959103;29;20234;-87
2022/09/30 04:33:36;;;;;;;30.52;22.40;;;9.40;99.90;;;;;;4958974;29;20195;-88
2022/09/30 04:36:04;;;;;;;29.08;23.33;;;9.50;99.90;;;;;;4961604;29;20201;-87
2022/09/30 04:38:33;;;;;;;28.48;21.40;;;9.30;99.90;;;;;;4948656;29;20206;-89
2022/09/30 04:41:04;;;;;;;29.08;21.75;;;9.30;99.90;;;;;;4957607;29;20202;-86
2022/09/30 04:43:33;;;;;;;34.45;23.27;;;9.40;99.90;;;;;;4956598;29;20250;-90
2022/09/30 04:46:01;;;;;;;28.02;22.73;;;9.60;99.90;;;;;;4958452;28;20241;-88
2022/09/30 04:48:36;;;;;;;32.80;22.50;;;9.50;99.90;;;;;;4949470;29;20226;-89
2022/09/30 04:51:08;;;;;;;28.95;21.60;;;9.60;99.90;;;;;;4963448;29;20208;-87
2022/09/30 04:53:59;;;;;;;28.15;21.40;;;9.70;99.90;;;;;;4961093;28;20238;-89
2022/09/30 04:56:31;;;;;;;24.58;20.88;;;9.60;99.90;;;;;;4946923;29;20279;-87
2022/09/30 04:59:07;;;;;;;31.13;21.85;;;9.90;99.90;;;;;;4939843;29;20454;-88
2022/09/30 05:01:41;;;;;;;26.73;21.38;;;9.80;99.90;;;;;;4966849;29;20215;-88
2022/09/30 05:04:11;;;;;;;27.27;22.10;;;9.90;99.90;;;;;;4955423;29;20299;-90
2022/09/30 05:06:41;;;;;;;34.15;22.33;;;9.90;99.90;;;;;;4946682;29;20419;-90
2022/09/30 05:09:07;;;;;;;26.13;22.55;;;10.20;99.90;;;;;;4961432;29;20248;-89
2022/09/30 05:11:40;;;;;;;30.63;21.48;;;10.40;99.90;;;;;;5103909;23;20352;-88
2022/09/30 05:14:09;;;;;;;24.10;21.42;;;10.50;99.90;;;;;;4914005;29;20202;-90
2022/09/30 05:30:06;;;;;;;24.73;21.30;;;11.10;99.90;;;;;;4940329;29;20321;-87
2022/09/30 05:32:35;;;;;;;29.05;21.48;;;11.10;99.90;;;;;;4939438;28;20230;-89
2022/09/30 05:35:02;;;;;;;26.85;20.42;;;10.90;99.90;;;;;;4932249;29;20268;-90
2022/09/30 05:37:29;;;;;;;30.35;20.38;;;10.90;99.90;;;;;;4944603;29;20223;-87
2022/09/30 05:39:58;;;;;;;28.58;18.77;;;10.80;99.90;;;;;;4956146;28;20202;-88
2022/09/30 05:42:25;;;;;;;26.13;19.38;;;10.60;99.90;;;;;;4937160;29;20199;-89
2022/09/30 05:44:52;;;;;;;26.10;20.50;;;10.30;99.90;;;;;;5135459;23;20267;-88
2022/09/30 05:47:19;;;;;;;27.50;19.52;;;10.20;99.90;;;;;;4938683;29;20219;-88
2022/09/30 05:49:46;;;;;;;26.90;20.05;;;10.20;99.90;;;;;;4931514;29;20218;-87
2022/09/30 05:52:14;;;;;;;23.88;19.35;;;10.10;99.90;;;;;;4939917;29;20191;-88
2022/09/30 05:54:41;;;;;;;29.67;21.13;;;10.10;99.90;;;;;;5271448;23;20238;-89
2022/09/30 05:59:49;;;;;;;23.13;18.70;;;10.10;99.90;;;;;;5273739;23;20250;-88
2022/09/30 06:02:17;;;;;;;23.58;19.58;;;10.20;99.90;;;;;;5500563;23;20241;-89
2022/09/30 06:04:43;;;;;;;24.15;19.38;;;10.30;99.90;;;;;;4963587;28;20236;-87
2022/09/30 06:07:12;;;;;;;27.65;19.02;;;10.40;99.90;;;;;;4950669;29;20222;-90
2022/09/30 06:09:39;;;;;;;29.25;21.08;;;10.40;99.90;;;;;;4951505;29;20277;-91
2022/09/30 06:12:08;;;;;;;25.52;21.33;;;10.60;99.90;;;;;;4955590;29;20199;-87
2022/09/30 06:14:35;;;;;;;25.83;19.92;;;10.70;99.90;;;;;;4962389;28;20186;-86
2022/09/30 06:19:38;;;;;;;24.77;18.98;;;10.80;99.90;;;;;;5937836;23;20571;-90
2022/09/30 06:22:04;;;;;;;25.85;20.70;;;11.10;99.90;;;;;;4933430;29;20211;-87
2022/09/30 06:24:33;;;;;;;31.10;21.42;;;11.00;99.90;;;;;;4933129;29;20464;-89
2022/09/30 06:27:00;;;;;;;26.75;21.77;;;11.30;99.90;;;;;;4947648;29;20251;-88
2022/09/30 06:29:28;;;;;;;28.80;21.08;;;11.30;99.90;;;;;;4937520;29;20235;-87
2022/09/30 06:37:17;;;;;;;23.05;19.23;;;11.70;99.90;;;;;;5078087;23;20245;-86
2022/09/30 06:39:44;;;;;;;29.13;21.27;;;11.70;99.90;;;;;;5501316;23;20235;-87
2022/09/30 06:44:54;;;;;;;21.10;18.00;;;11.50;99.90;;;;;;5311898;23;20331;-87
2022/09/30 06:58:56;;;;;;;23.33;18.70;;;11.50;99.90;;;;;;5094943;28;20558;-84
2022/09/30 07:38:41;;;;;;;26.45;18.60;;;11.50;99.90;;;;;;5484092;22;20202;-87
2022/09/30 07:41:12;;;;;;;20.02;16.67;;;11.40;99.90;;;;;;5100524;28;20183;-86
2022/09/30 07:54:22;;;;;;;28.60;18.80;;;11.50;99.90;;;;;;6153806;22;1268005;-90
2022/09/30 07:56:53;;;;;;;24.58;19.85;;;12.70;99.90;;;;;;6181173;22;20210;-87
2022/09/30 08:04:57;;;;;;;25.73;17.23;;;12.90;99.90;;;;;;6243211;23;20186;-86
2022/09/30 08:07:24;;;;;;;22.48;18.15;;;12.80;99.90;;;;;;6126849;22;20312;-87
2022/09/30 08:09:51;;;;;;;20.30;17.10;;;12.90;99.90;;;;;;6193184;22;20199;-86
2022/09/30 08:12:18;;;;;;;31.65;21.02;;;12.60;99.90;;;;;;6205527;22;20195;-86
2022/09/30 08:22:57;;;;;;;24.73;19.52;;;13.30;99.90;;;;;;6173353;22;20217;-88
2022/09/30 08:28:05;;;;;;;32.08;18.45;;;12.50;99.90;;;;;;6230766;22;20304;-86
2022/09/30 08:30:37;;;;;;;33.58;18.00;;;12.30;99.90;;;;;;6163238;22;20241;-87
2022/09/30 09:32:21;;;;;;;20.37;14.60;;;16.40;99.90;;;;;;6242901;22;20462;-86
2022/09/30 09:45:29;;;;;;;18.07;14.63;;;15.80;99.90;;;;;;6233419;22;20452;-85
2022/09/30 09:47:58;;;;;;;20.60;14.93;;;15.80;99.90;;;;;;6236971;23;20416;-86
2022/09/30 09:51:02;;;;;;;21.10;16.83;;;15.70;99.90;;;;;;6234644;23;20374;-88
2022/09/30 09:56:20;;;;;;;17.27;14.87;;;16.20;99.90;;;;;;6212348;22;20437;-89
2022/09/30 09:59:16;;;;;;;17.10;13.93;;;15.60;99.90;;;;;;6202829;23;20383;-90
2022/09/30 10:01:53;;;;;;;19.20;14.93;;;15.30;99.90;;;;;;6196638;23;20377;-88
2022/09/30 10:04:24;;;;;;;24.23;15.50;;;15.20;99.90;;;;;;6226096;22;20464;-88
2022/09/30 10:09:36;;;;;;;23.60;16.03;;;14.90;99.90;;;;;;6218067;22;20220;-88
2022/09/30 10:12:05;;;;;;;20.27;14.32;;;15.20;99.90;;;;;;6229574;23;20383;-89
2022/09/30 10:17:18;;;;;;;18.87;14.10;;;15.20;99.90;;;;;;6227368;22;20444;-89
2022/09/30 10:19:56;;;;;;;19.70;14.60;;;15.20;99.90;;;;;;6180777;23;20396;-89
2022/09/30 10:22:29;;;;;;;16.33;13.90;;;15.40;99.90;;;;;;6199976;22;20931;-89
2022/09/30 10:25:22;;;;;;;17.53;13.83;;;15.50;99.90;;;;;;6206727;23;20465;-86
2022/09/30 10:28:01;;;;;;;17.07;14.07;;;15.70;99.90;;;;;;6225343;23;20415;-89
2022/09/30 10:30:50;;;;;;;20.13;13.53;;;15.70;99.90;;;;;;6204740;23;20492;-86
2022/09/30 10:33:23;;;;;;;16.13;12.70;;;15.70;99.90;;;;;;6215830;22;20455;-86
2022/09/30 10:36:07;;;;;;;16.00;12.77;;;15.60;99.90;;;;;;6257222;23;20437;-87
2022/09/30 10:41:11;;;;;;;19.93;12.93;;;15.70;99.90;;;;;;6169671;22;20476;-87
2022/09/30 10:46:22;;;;;;;13.53;11.73;;;16.00;99.90;;;;;;6217526;22;20438;-86
2022/09/30 10:51:33;;;;;;;15.37;13.30;;;17.10;99.90;;;;;;6195788;23;20272;-89
2022/09/30 10:54:02;;;;;;;13.47;11.90;;;18.00;99.90;;;;;;6195220;23;20400;-87
2022/09/30 10:56:44;;;;;;;14.53;11.30;;;18.50;99.90;;;;;;6195981;23;20390;-86
2022/09/30 11:02:33;;;;;;;12.50;11.20;;;18.20;99.90;;;;;;6235701;22;20551;-87
2022/09/30 11:05:08;;;;;;;11.90;9.43;;;18.10;99.90;;;;;;6227137;23;20393;-89
2022/09/30 11:08:02;;;;;;;10.30;8.47;;;18.40;99.90;;;;;;6204025;23;20381;-87
2022/09/30 11:10:57;;;;;;;16.70;10.33;;;18.40;99.90;;;;;;6225673;23;20496;-89
2022/09/30 11:16:28;;;;;;;9.50;8.00;;;18.00;99.90;;;;;;6221502;22;20497;-87
2022/09/30 11:19:07;;;;;;;10.63;9.53;;;17.20;99.90;;;;;;6197752;23;20975;-87
2022/09/30 11:21:54;;;;;;;9.13;8.20;;;17.30;99.90;;;;;;6200696;23;20616;-86
2022/09/30 11:24:43;;;;;;;11.23;8.60;;;17.20;99.90;;;;;;6226244;23;20396;-87
2022/09/30 11:27:20;;;;;;;11.00;7.80;;;17.40;99.90;;;;;;6186589;22;21589;-87
2022/09/30 11:30:28;;;;;;;12.10;8.07;;;17.40;99.90;;;;;;6197459;23;20395;-86
2022/09/30 11:33:12;;;;;;;18.43;9.13;;;17.60;99.90;;;;;;6170250;23;20419;-88
2022/09/30 11:36:17;;;;;;;10.10;8.13;;;18.20;99.90;;;;;;6199144;23;20508;-86
2022/09/30 11:39:03;;;;;;;7.90;6.77;;;17.60;99.90;;;;;;6163598;23;20445;-85
2022/09/30 11:41:46;;;;;;;7.73;5.90;;;17.30;99.90;;;;;;6195555;23;20378;-90
2022/09/30 11:44:34;;;;;;;7.40;6.70;;;17.40;99.90;;;;;;6194430;23;20402;-87
2022/09/30 11:47:34;;;;;;;8.50;5.47;;;17.80;99.90;;;;;;6198097;23;20452;-88
2022/09/30 11:50:12;;;;;;;6.93;6.00;;;17.80;99.90;;;;;;6166602;22;21650;-85
2022/09/30 11:52:58;;;;;;;5.80;5.30;;;17.80;99.90;;;;;;6256540;23;20411;-87
2022/09/30 11:56:13;;;;;;;9.13;6.00;;;18.00;99.90;;;;;;6251347;22;20380;-86
2022/09/30 12:01:28;;;;;;;5.00;3.97;;;18.30;99.90;;;;;;6224304;22;20403;-89
2022/09/30 12:04:01;;;;;;;5.90;5.10;;;18.00;99.90;;;;;;6200866;23;20472;-89
2022/09/30 12:06:35;;;;;;;5.23;4.63;;;18.20;99.90;;;;;;6225864;23;20549;-86
2022/09/30 12:09:23;;;;;;;5.87;4.03;;;18.50;99.90;;;;;;6223923;22;20455;-87
2022/09/30 12:14:59;;;;;;;5.17;3.70;;;18.80;99.90;;;;;;6197551;23;20374;-87
2022/09/30 12:17:36;;;;;;;3.93;3.63;;;19.00;99.90;;;;;;6180039;22;20676;-87
2022/09/30 12:20:26;;;;;;;4.80;3.93;;;18.00;99.90;;;;;;6202141;22;20449;-88
2022/09/30 12:23:14;;;;;;;3.83;3.53;;;17.20;99.90;;;;;;6228128;22;20464;-86
2022/09/30 12:25:51;;;;;;;6.63;4.90;;;16.80;99.90;;;;;;6225786;22;20479;-86
2022/09/30 12:32:18;;;;;;;5.53;4.10;;;16.60;99.90;;;;;;6229155;23;20391;-89
2022/09/30 12:35:13;;;;;;;6.10;5.50;;;16.60;99.90;;;;;;6249598;23;20416;-87
2022/09/30 12:38:17;;;;;;;5.73;4.00;;;16.70;99.90;;;;;;6227771;23;20415;-87
2022/09/30 12:41:06;;;;;;;5.67;4.10;;;16.80;99.90;;;;;;6251071;23;20408;-88
2022/09/30 12:44:11;;;;;;;4.83;4.43;;;16.80;99.90;;;;;;6217123;22;20444;-89
2022/09/30 12:47:16;;;;;;;5.27;4.77;;;16.80;99.90;;;;;;6224659;22;20442;-87
2022/09/30 12:49:45;;;;;;;9.83;5.17;;;16.90;99.90;;;;;;6260744;23;20467;-90
2022/09/30 12:52:18;;;;;;;5.67;4.80;;;17.10;99.90;;;;;;6243991;22;20450;-89
2022/09/30 12:54:48;;;;;;;6.33;4.80;;;17.30;99.90;;;;;;6192726;22;20447;-88
2022/09/30 12:57:25;;;;;;;4.77;4.37;;;17.20;99.90;;;;;;6264833;22;20365;-88
2022/09/30 13:00:12;;;;;;;4.90;4.47;;;17.00;99.90;;;;;;6273197;22;20451;-86
2022/09/30 13:02:52;;;;;;;4.80;3.40;;;17.00;99.90;;;;;;6273203;22;20419;-88
2022/09/30 13:05:26;;;;;;;7.57;4.90;;;17.50;99.90;;;;;;6245918;22;20392;-86
2022/09/30 13:08:05;;;;;;;4.20;3.90;;;17.70;99.90;;;;;;6247027;22;20485;-86
2022/09/30 13:10:43;;;;;;;4.20;3.60;;;18.00;99.90;;;;;;6232348;23;20435;-88
2022/09/30 13:13:09;;;;;;;3.63;3.33;;;17.70;99.90;;;;;;6241784;22;20428;-88
2022/09/30 13:15:44;;;;;;;5.43;4.20;;;17.50;99.90;;;;;;6237834;23;20419;-89
2022/09/30 13:18:25;;;;;;;5.83;4.90;;;17.60;99.90;;;;;;6231788;23;20399;-89
2022/09/30 13:21:04;;;;;;;5.77;5.27;;;17.90;99.90;;;;;;6237679;22;20363;-87
2022/09/30 13:23:41;;;;;;;5.30;4.83;;;17.90;99.90;;;;;;6244547;22;20502;-87
2022/09/30 13:26:37;;;;;;;6.57;4.30;;;18.20;99.90;;;;;;6245921;22;20510;-87
2022/09/30 13:29:15;;;;;;;4.83;4.43;;;18.40;99.90;;;;;;6259629;22;20695;-88
2022/09/30 13:39:55;;;;;;;5.90;4.87;;;17.00;99.90;;;;;;6195397;22;20441;-87
2022/09/30 13:42:30;;;;;;;6.33;5.83;;;16.90;99.90;;;;;;6198654;23;20469;-88
2022/09/30 13:45:15;;;;;;;7.50;5.70;;;17.10;99.90;;;;;;6197997;23;20382;-88
2022/09/30 13:48:13;;;;;;;7.30;6.53;;;17.40;99.90;;;;;;6196792;23;20386;-89
2022/09/30 13:50:46;;;;;;;8.53;7.13;;;17.80;99.90;;;;;;6195600;23;20468;-89
2022/09/30 13:53:50;;;;;;;8.50;6.20;;;18.20;99.90;;;;;;6197073;23;20405;-88
2022/09/30 13:56:21;;;;;;;6.87;5.77;;;18.00;99.90;;;;;;6113715;23;20411;-88
2022/09/30 13:59:20;;;;;;;7.90;6.00;;;17.90;99.90;;;;;;6186298;23;20398;-87
2022/09/30 14:02:29;;;;;;;7.67;5.87;;;17.90;99.90;;;;;;6196169;23;20385;-90
2022/09/30 14:05:18;;;;;;;5.73;4.83;;;18.20;99.90;;;;;;6196468;23;20453;-90
2022/09/30 14:08:39;;;;;;;6.53;4.43;;;17.80;99.90;;;;;;6197323;23;20725;-87
2022/09/30 14:11:29;;;;;;;8.20;4.80;;;17.70;99.90;;;;;;6161550;23;20406;-88
2022/09/30 14:14:25;;;;;;;11.20;5.17;;;18.00;99.90;;;;;;6193354;23;20369;-89
2022/09/30 14:17:11;;;;;;;6.10;5.10;;;18.30;99.90;;;;;;6195668;23;20561;-87
2022/09/30 14:20:04;;;;;;;8.63;6.10;;;18.30;99.90;;;;;;6208090;23;20430;-88
2022/09/30 14:22:35;;;;;;;6.57;5.67;;;18.40;99.90;;;;;;6211664;23;20383;-86
2022/09/30 14:25:17;;;;;;;5.40;5.00;;;18.30;99.90;;;;;;6211017;23;20394;-85
2022/09/30 14:27:49;;;;;;;6.90;5.20;;;18.00;99.90;;;;;;6208821;23;20390;-88
2022/09/30 14:30:21;;;;;;;8.40;5.23;;;17.70;99.90;;;;;;6203962;23;20406;-87
2022/09/30 14:33:05;;;;;;;6.40;5.23;;;17.50;99.90;;;;;;6195314;23;20449;-88
2022/09/30 14:35:34;;;;;;;7.27;6.17;;;17.60;99.90;;;;;;6196052;23;20464;-88
2022/09/30 14:38:28;;;;;;;6.37;5.77;;;17.80;99.90;;;;;;6207082;22;21325;-85
2022/09/30 14:40:59;;;;;;;9.30;5.30;;;17.60;99.90;;;;;;6212753;22;20415;-89
2022/09/30 14:43:34;;;;;;;5.27;4.70;;;17.30;99.90;;;;;;6232436;23;20492;-87
2022/09/30 14:46:25;;;;;;;6.70;4.63;;;17.20;99.90;;;;;;6224851;23;20416;-88
2022/09/30 14:59:32;;;;;;;5.07;4.57;;;15.60;99.90;;;;;;6208968;22;20455;-89
2022/09/30 15:02:00;;;;;;;5.50;4.63;;;15.40;99.90;;;;;;6260410;23;20894;-89
2022/09/30 15:04:33;;;;;;;5.50;5.10;;;15.60;99.90;;;;;;6258323;23;20807;-88
2022/09/30 15:07:10;;;;;;;4.50;4.07;;;15.50;99.90;;;;;;6258357;23;20435;-88
2022/09/30 15:09:41;;;;;;;5.50;4.00;;;15.50;99.90;;;;;;6257820;23;20402;-87
2022/09/30 15:12:13;;;;;;;4.67;4.27;;;15.50;99.90;;;;;;6253944;23;20353;-88
2022/09/30 15:14:54;;;;;;;4.83;4.00;;;15.50;99.90;;;;;;6210030;22;20774;-88
2022/09/30 15:17:26;;;;;;;5.47;4.23;;;15.40;99.90;;;;;;6198777;23;20491;-85
2022/09/30 15:19:54;;;;;;;6.90;4.53;;;15.30;99.90;;;;;;6197484;23;20380;-88
2022/09/30 15:22:25;;;;;;;5.43;4.20;;;15.20;99.90;;;;;;6195841;23;20507;-88
2022/09/30 15:24:55;;;;;;;4.23;3.77;;;15.20;99.90;;;;;;6203030;23;20459;-88
2022/09/30 15:27:29;;;;;;;8.30;4.47;;;15.30;99.90;;;;;;6213364;22;20437;-87
2022/09/30 15:30:14;;;;;;;5.63;4.43;;;15.20;99.90;;;;;;6240669;23;20403;-87
2022/09/30 15:32:44;;;;;;;5.80;4.67;;;15.20;99.90;;;;;;6239724;23;20403;-86
2022/09/30 15:35:22;;;;;;;4.13;3.73;;;15.40;99.90;;;;;;6210438;22;20468;-87
2022/09/30 15:38:36;;;;;;;4.63;4.17;;;15.30;99.90;;;;;;6236736;23;20380;-89
2022/09/30 15:43:51;;;;;;;5.37;4.87;;;15.30;99.90;;;;;;6215634;22;20457;-87
2022/09/30 15:46:33;;;;;;;5.60;5.20;;;15.10;99.90;;;;;;6199878;23;20443;-86
2022/09/30 15:49:24;;;;;;;8.10;5.23;;;15.30;99.90;;;;;;6182800;23;20435;-86
2022/09/30 15:51:52;;;;;;;4.73;4.20;;;15.20;99.90;;;;;;6208322;23;20394;-86
2022/09/30 15:54:37;;;;;;;5.47;4.20;;;14.90;99.90;;;;;;6203227;23;20450;-88
2022/09/30 16:00:38;;;;;;;4.77;4.37;;;14.40;99.90;;;;;;6260601;22;20381;-88
2022/09/30 16:03:23;;;;;;;8.05;5.63;;;14.10;99.90;;;;;;6262998;23;20434;-90
2022/09/30 16:08:40;;;;;;;7.50;6.32;;;13.90;99.90;;;;;;6196197;22;20221;-84
2022/09/30 16:14:01;;;;;;;8.60;4.78;;;13.90;99.90;;;;;;6262634;22;20219;-89
2022/09/30 16:16:32;;;;;;;6.97;4.85;;;13.80;99.90;;;;;;6271078;22;20180;-88
2022/09/30 16:19:01;;;;;;;5.47;4.95;;;13.80;99.90;;;;;;6261110;23;20169;-88
2022/09/30 16:21:49;;;;;;;5.85;5.30;;;13.80;99.90;;;;;;6236785;23;20181;-89
2022/09/30 16:24:29;;;;;;;8.32;5.95;;;13.80;99.90;;;;;;6261663;23;20196;-89
2022/09/30 16:27:26;;;;;;;6.78;5.22;;;13.70;99.90;;;;;;6260786;23;20182;-90
2022/09/30 16:29:53;;;;;;;6.45;5.63;;;13.70;99.90;;;;;;6261007;23;20359;-90
2022/09/30 16:32:32;;;;;;;11.80;5.30;;;13.80;99.90;;;;;;6268791;22;20151;-88
2022/09/30 16:35:00;;;;;;;5.80;5.20;;;13.60;99.90;;;;;;6246703;22;20277;-91
2022/09/30 16:37:27;;;;;;;6.70;5.82;;;13.60;99.90;;;;;;6234026;23;20207;-89
2022/09/30 16:40:13;;;;;;;8.40;5.97;;;13.50;99.90;;;;;;6261716;23;20175;-89
2022/09/30 16:42:41;;;;;;;7.47;6.78;;;13.50;99.90;;;;;;6264389;23;20174;-91
2022/09/30 16:45:17;;;;;;;11.65;6.40;;;13.50;99.90;;;;;;6262163;23;20207;-90
2022/09/30 16:47:45;;;;;;;9.10;6.82;;;13.40;99.90;;;;;;6235838;23;20242;-86
2022/09/30 16:50:22;;;;;;;10.80;7.32;;;13.40;99.90;;;;;;6238479;23;20175;-89
2022/09/30 16:52:50;;;;;;;8.35;6.85;;;12.90;99.90;;;;;;6256469;23;20219;-89
2022/09/30 16:55:17;;;;;;;13.30;9.85;;;12.80;99.90;;;;;;6238603;23;20240;-88
2022/09/30 17:00:32;;;;;;;20.63;8.75;;;12.70;99.90;;;;;;6212989;22;20238;-87
2022/09/30 17:03:00;;;;;;;9.82;7.80;;;12.60;99.90;;;;;;6204255;23;20183;-86
2022/09/30 17:05:29;;;;;;;10.48;8.93;;;12.60;99.90;;;;;;6203891;23;20204;-89
2022/09/30 17:08:12;;;;;;;13.43;7.97;;;12.60;99.90;;;;;;6239118;22;20190;-88
2022/09/30 17:10:42;;;;;;;13.32;9.65;;;12.70;99.90;;;;;;6165981;23;20263;-88
2022/09/30 17:15:56;;;;;;;15.15;8.95;;;12.20;99.90;;;;;;6201335;22;20234;-84
2022/09/30 17:18:30;;;;;;;15.23;10.07;;;12.00;99.90;;;;;;6163629;22;20186;-85
2022/09/30 17:20:59;;;;;;;12.80;9.20;;;12.00;99.90;;;;;;6234425;22;20191;-89
2022/09/30 17:23:28;;;;;;;14.38;10.60;;;12.00;99.90;;;;;;6234784;23;20223;-87
2022/09/30 17:25:57;;;;;;;19.63;10.80;;;11.80;99.90;;;;;;6227531;22;20195;-89
2022/09/30 17:31:02;;;;;;;14.73;9.75;;;11.90;99.90;;;;;;6213504;22;20217;-88
2022/09/30 17:36:11;;;;;;;27.58;9.85;;;11.90;99.90;;;;;;6188845;22;20175;-89
2022/09/30 17:38:40;;;;;;;12.40;10.05;;;11.90;99.90;;;;;;6210310;22;20292;-91
2022/09/30 17:43:53;;;;;;;15.48;11.35;;;11.80;99.90;;;;;;6233604;22;20226;-87
2022/09/30 17:46:44;;;;;;;15.77;11.60;;;11.80;99.90;;;;;;6172998;23;20203;-88
2022/09/30 17:54:29;;;;;;;13.88;10.68;;;11.50;99.90;;;;;;6251161;22;20207;-89
2022/09/30 17:57:00;;;;;;;16.35;11.63;;;11.40;99.90;;;;;;6246854;22;20199;-91
2022/09/30 17:59:28;;;;;;;10.88;9.73;;;11.40;99.90;;;;;;6245265;22;20202;-88
2022/09/30 18:01:58;;;;;;;12.60;9.95;;;11.20;99.90;;;;;;6190371;22;20278;-88
2022/09/30 18:04:25;;;;;;;16.65;12.85;;;11.20;99.90;;;;;;6222409;22;20192;-89
2022/09/30 18:06:57;;;;;;;14.30;11.18;;;11.20;99.90;;;;;;6210666;23;20160;-88
2022/09/30 18:09:25;;;;;;;17.10;11.48;;;11.20;99.90;;;;;;6186840;22;21401;-89
2022/09/30 18:12:07;;;;;;;15.60;12.15;;;11.20;99.90;;;;;;6242736;22;20265;-88
2022/09/30 18:22:50;;;;;;;17.83;12.90;;;11.10;99.90;;;;;;6179135;22;20205;-89
2022/09/30 18:25:18;;;;;;;20.52;14.02;;;11.00;99.90;;;;;;6182645;23;20245;-89
2022/09/30 18:27:50;;;;;;;17.20;13.52;;;11.10;99.90;;;;;;6209160;23;20180;-88
2022/09/30 18:30:19;;;;;;;17.90;13.65;;;11.20;99.90;;;;;;6161304;23;20201;-91
2022/09/30 18:35:32;;;;;;;18.17;14.63;;;11.10;99.90;;;;;;6243262;22;20197;-89
2022/09/30 18:37:59;;;;;;;18.40;15.30;;;11.00;99.90;;;;;;6223333;22;20344;-88
2022/09/30 18:40:29;;;;;;;20.85;16.00;;;10.90;99.90;;;;;;6232538;23;20409;-88
2022/09/30 18:43:01;;;;;;;20.42;15.30;;;10.80;99.90;;;;;;6207074;23;20219;-87
2022/09/30 18:48:08;;;;;;;25.65;15.68;;;10.70;99.90;;;;;;6224042;22;20575;-89
2022/09/30 18:55:43;;;;;;;26.23;15.18;;;10.60;99.90;;;;;;6259058;22;20204;-89
2022/09/30 18:58:16;;;;;;;22.52;16.98;;;10.60;99.90;;;;;;6240646;23;20201;-90
2022/09/30 19:00:44;;;;;;;18.92;15.73;;;10.60;99.90;;;;;;6218324;22;20206;-89
2022/09/30 19:13:56;;;;;;;22.92;18.13;;;10.50;99.90;;;;;;6225465;22;20246;-90
2022/09/30 19:16:36;;;;;;;28.00;19.50;;;10.40;99.90;;;;;;6184690;23;20213;-89
2022/09/30 19:19:09;;;;;;;26.08;20.05;;;10.40;99.90;;;;;;6180134;22;20453;-85
2022/09/30 19:35:00;;;;;;;28.10;19.25;;;10.90;99.90;;;;;;6174479;22;20194;-89
2022/09/30 19:37:33;;;;;;;29.60;22.38;;;11.00;99.90;;;;;;6192684;22;20196;-90
2022/09/30 19:42:36;;;;;;;25.05;18.38;;;10.90;99.90;;;;;;6212948;22;20253;-90
2022/09/30 19:45:07;;;;;;;24.00;19.77;;;11.00;99.90;;;;;;6168411;22;20226;-90
2022/09/30 19:47:36;;;;;;;25.75;18.67;;;10.90;99.90;;;;;;6210192;22;20206;-88
2022/09/30 19:50:08;;;;;;;29.38;20.52;;;10.80;99.90;;;;;;6220331;22;20207;-90
2022/09/30 20:01:39;;;;;;;29.15;21.17;;;11.00;99.90;;;;;;6220368;22;20272;-87
2022/09/30 20:04:42;;;;;;;38.15;22.13;;;11.10;99.90;;;;;;6171726;22;20205;-87
2022/09/30 20:08:11;;;;;;;27.00;21.60;;;10.80;99.90;;;;;;6221477;22;20236;-85
2022/09/30 20:18:19;;;;;;;37.00;22.63;;;10.80;99.90;;;;;;6018840;23;20643;-88
2022/09/30 20:21:22;;;;;;;27.58;20.77;;;10.70;99.90;;;;;;6019839;23;20187;-89
2022/09/30 20:24:03;;;;;;;31.33;23.23;;;10.70;99.90;;;;;;6025865;23;20443;-87
2022/09/30 20:26:40;;;;;;;30.80;22.45;;;10.90;99.90;;;;;;6024222;23;20198;-88
2022/09/30 20:29:13;;;;;;;29.42;21.92;;;10.80;99.90;;;;;;6046418;23;20256;-88
2022/09/30 20:32:11;;;;;;;31.88;21.20;;;10.80;99.90;;;;;;6040904;23;20182;-87
2022/09/30 20:35:07;;;;;;;30.05;21.23;;;10.80;99.90;;;;;;6042051;23;20187;-87